Blue Gap, Arizona
Current Conditions -  °F | °C
As of 5:56 AM on Wednesday 26 Nov 2014 (Local Time) from KINW Reporting Station
Clear Clear  
Wind Chill: 19°   Ceiling: Unl
Heat Index: 19°   Visibility: 10mi
Dew Point:   Wind: 0mph
Humidity: 46%   Direction: NA
Pressure: 30.41"   Gusts: NA
Location:  36.07°N, 110.08°W
Report Text: KINW 261256Z AUTO 00000KT 10SM CLR M07/M17 A3041 RMK AO2 SLP321 T10721172
Loading
Personal Weather Stations






























Interactive Weather Map New forecast layout! Learn more

10-Day Weather Forecast

Advertisements
Track Severe Weather on mobile